Collett, Indiana
Current Conditions -  °F | °C
As of 2:53 AM on Saturday 20 Dec 2014 (Local Time) from KMIE Reporting Station
Haze Haze  
Wind Chill: 29°   Ceiling: 2900
Heat Index: 29°   Visibility: 6mi
Dew Point: 26°   Wind: 0mph
Humidity: 89%   Direction: NA
Pressure: 30.27"   Gusts: NA
Location:  40.4312°N, 85.0058°W
Report Text: KMIE 200753Z AUTO 00000KT 6SM BR OVC029 M02/M03 A3027 RMK AO2 SLP259 T10171033 $
Loading
Personal Weather Stations






























Interactive Weather Map New forecast layout! Learn more

10-Day Weather Forecast

Advertisements
Track Severe Weather on mobile